sensor_id;sensor_type;location;lat;lon;timestamp;temperature;humidity
52459;DHT22;38372;52.902;6.024;2023-04-25T00:00:12;5.50;99.90
52459;DHT22;38372;52.902;6.024;2023-04-25T00:02:38;5.50;99.90
52459;DHT22;38372;52.902;6.024;2023-04-25T00:05:04;5.50;99.90
52459;DHT22;38372;52.902;6.024;2023-04-25T00:07:30;5.50;99.90
52459;DHT22;38372;52.902;6.024;2023-04-25T00:09:56;5.40;99.90
52459;DHT22;38372;52.902;6.024;2023-04-25T00:12:22;5.40;99.90
52459;DHT22;38372;52.902;6.024;2023-04-25T00:14:48;5.30;99.90
52459;DHT22;38372;52.902;6.024;2023-04-25T00:17:15;5.30;99.90
52459;DHT22;38372;52.902;6.024;2023-04-25T00:19:44;5.30;99.90
52459;DHT22;38372;52.902;6.024;2023-04-25T00:22:12;5.30;99.90
52459;DHT22;38372;52.902;6.024;2023-04-25T00:24:38;5.30;99.90
52459;DHT22;38372;52.902;6.024;2023-04-25T00:27:04;5.30;99.90
52459;DHT22;38372;52.902;6.024;2023-04-25T00:29:30;5.30;99.90
52459;DHT22;38372;52.902;6.024;2023-04-25T00:31:56;5.40;99.90
52459;DHT22;38372;52.902;6.024;2023-04-25T00:34:21;5.40;99.90
52459;DHT22;38372;52.902;6.024;2023-04-25T00:36:47;5.40;99.90
52459;DHT22;38372;52.902;6.024;2023-04-25T00:39:13;5.40;99.90
52459;DHT22;38372;52.902;6.024;2023-04-25T00:41:39;5.30;99.90
52459;DHT22;38372;52.902;6.024;2023-04-25T00:44:05;5.30;99.90
52459;DHT22;38372;52.902;6.024;2023-04-25T00:46:32;5.30;99.90
52459;DHT22;38372;52.902;6.024;2023-04-25T00:48:58;5.40;99.90
52459;DHT22;38372;52.902;6.024;2023-04-25T00:51:24;5.40;99.90
52459;DHT22;38372;52.902;6.024;2023-04-25T00:53:52;5.40;99.90
52459;DHT22;38372;52.902;6.024;2023-04-25T00:56:18;5.40;99.90
52459;DHT22;38372;52.902;6.024;2023-04-25T00:58:44;5.50;99.90
52459;DHT22;38372;52.902;6.024;2023-04-25T01:01:10;5.60;99.90
52459;DHT22;38372;52.902;6.024;2023-04-25T01:03:38;5.60;99.90
52459;DHT22;38372;52.902;6.024;2023-04-25T01:06:10;5.60;99.90
52459;DHT22;38372;52.902;6.024;2023-04-25T01:08:38;5.70;99.90
52459;DHT22;38372;52.902;6.024;2023-04-25T01:11:05;5.70;99.90
52459;DHT22;38372;52.902;6.024;2023-04-25T01:13:31;5.80;99.90
52459;DHT22;38372;52.902;6.024;2023-04-25T01:15:59;5.80;99.90
52459;DHT22;38372;52.902;6.024;2023-04-25T01:18:24;5.80;99.90
52459;DHT22;38372;52.902;6.024;2023-04-25T01:20:51;5.90;99.90
52459;DHT22;38372;52.902;6.024;2023-04-25T01:23:19;5.90;99.90
52459;DHT22;38372;52.902;6.024;2023-04-25T01:25:45;5.90;99.90
52459;DHT22;38372;52.902;6.024;2023-04-25T01:28:12;5.90;99.90
52459;DHT22;38372;52.902;6.024;2023-04-25T01:30:38;5.90;99.90
52459;DHT22;38372;52.902;6.024;2023-04-25T01:33:04;6.00;99.90
52459;DHT22;38372;52.902;6.024;2023-04-25T01:35:31;6.00;99.90
52459;DHT22;38372;52.902;6.024;2023-04-25T01:38:15;5.90;99.90
52459;DHT22;38372;52.902;6.024;2023-04-25T01:40:41;5.90;99.90
52459;DHT22;38372;52.902;6.024;2023-04-25T01:43:10;5.90;99.90
52459;DHT22;38372;52.902;6.024;2023-04-25T01:45:41;5.90;99.90
52459;DHT22;38372;52.902;6.024;2023-04-25T01:48:11;5.90;99.90
52459;DHT22;38372;52.902;6.024;2023-04-25T01:50:38;5.90;99.90
52459;DHT22;38372;52.902;6.024;2023-04-25T01:53:04;5.80;99.90
52459;DHT22;38372;52.902;6.024;2023-04-25T01:55:30;5.90;99.90
52459;DHT22;38372;52.902;6.024;2023-04-25T01:57:56;5.80;99.90
52459;DHT22;38372;52.902;6.024;2023-04-25T02:00:22;5.90;99.90
52459;DHT22;38372;52.902;6.024;2023-04-25T02:02:48;5.90;99.90
52459;DHT22;38372;52.902;6.024;2023-04-25T02:05:16;5.90;99.90
52459;DHT22;38372;52.902;6.024;2023-04-25T02:07:42;5.90;99.90
52459;DHT22;38372;52.902;6.024;2023-04-25T02:10:08;5.90;99.90
52459;DHT22;38372;52.902;6.024;2023-04-25T02:12:35;5.90;99.90
52459;DHT22;38372;52.902;6.024;2023-04-25T02:15:01;5.90;99.90
52459;DHT22;38372;52.902;6.024;2023-04-25T02:17:27;5.90;99.90
52459;DHT22;38372;52.902;6.024;2023-04-25T02:19:53;5.90;99.90
52459;DHT22;38372;52.902;6.024;2023-04-25T02:22:19;5.90;99.90
52459;DHT22;38372;52.902;6.024;2023-04-25T02:24:46;5.90;99.90
52459;DHT22;38372;52.902;6.024;2023-04-25T02:27:12;5.90;99.90
52459;DHT22;38372;52.902;6.024;2023-04-25T02:29:38;5.80;99.90
52459;DHT22;38372;52.902;6.024;2023-04-25T02:32:04;5.80;99.90
52459;DHT22;38372;52.902;6.024;2023-04-25T02:34:29;5.80;99.90
52459;DHT22;38372;52.902;6.024;2023-04-25T02:36:55;5.80;99.90
52459;DHT22;38372;52.902;6.024;2023-04-25T02:39:21;5.70;99.90
52459;DHT22;38372;52.902;6.024;2023-04-25T02:41:47;5.70;99.90
52459;DHT22;38372;52.902;6.024;2023-04-25T02:44:13;5.70;99.90
52459;DHT22;38372;52.902;6.024;2023-04-25T02:46:39;5.70;99.90
52459;DHT22;38372;52.902;6.024;2023-04-25T02:49:05;5.60;99.90
52459;DHT22;38372;52.902;6.024;2023-04-25T02:51:31;5.60;99.90
52459;DHT22;38372;52.902;6.024;2023-04-25T02:53:57;5.60;99.90
52459;DHT22;38372;52.902;6.024;2023-04-25T02:56:23;5.60;99.90
52459;DHT22;38372;52.902;6.024;2023-04-25T02:58:48;5.60;99.90
52459;DHT22;38372;52.902;6.024;2023-04-25T03:01:14;5.50;99.90
52459;DHT22;38372;52.902;6.024;2023-04-25T03:03:40;5.50;99.90
52459;DHT22;38372;52.902;6.024;2023-04-25T03:06:06;5.50;99.90
52459;DHT22;38372;52.902;6.024;2023-04-25T03:08:31;5.50;99.90
52459;DHT22;38372;52.902;6.024;2023-04-25T03:10:58;5.50;99.90
52459;DHT22;38372;52.902;6.024;2023-04-25T03:13:24;5.50;99.90
52459;DHT22;38372;52.902;6.024;2023-04-25T03:15:50;5.50;99.90
52459;DHT22;38372;52.902;6.024;2023-04-25T03:18:16;5.60;99.90
52459;DHT22;38372;52.902;6.024;2023-04-25T03:20:41;5.60;99.90
52459;DHT22;38372;52.902;6.024;2023-04-25T03:23:08;5.50;99.90
52459;DHT22;38372;52.902;6.024;2023-04-25T03:25:34;5.60;99.90
52459;DHT22;38372;52.902;6.024;2023-04-25T03:28:00;5.50;99.90
52459;DHT22;38372;52.902;6.024;2023-04-25T03:30:26;5.50;99.90
52459;DHT22;38372;52.902;6.024;2023-04-25T03:32:51;5.50;99.90
52459;DHT22;38372;52.902;6.024;2023-04-25T03:35:17;5.40;99.90
52459;DHT22;38372;52.902;6.024;2023-04-25T03:37:43;5.40;99.90
52459;DHT22;38372;52.902;6.024;2023-04-25T03:40:11;5.30;99.90
52459;DHT22;38372;52.902;6.024;2023-04-25T03:42:37;5.30;99.90
52459;DHT22;38372;52.902;6.024;2023-04-25T03:45:03;5.30;99.90
52459;DHT22;38372;52.902;6.024;2023-04-25T03:47:29;5.30;99.90
52459;DHT22;38372;52.902;6.024;2023-04-25T03:49:55;5.30;99.90
52459;DHT22;38372;52.902;6.024;2023-04-25T03:52:20;5.20;99.90
52459;DHT22;38372;52.902;6.024;2023-04-25T03:54:46;5.20;99.90
52459;DHT22;38372;52.902;6.024;2023-04-25T03:57:12;5.10;99.90
52459;DHT22;38372;52.902;6.024;2023-04-25T03:59:38;5.10;99.90
52459;DHT22;38372;52.902;6.024;2023-04-25T04:02:03;5.10;99.90
52459;DHT22;38372;52.902;6.024;2023-04-25T04:04:29;5.10;99.90
52459;DHT22;38372;52.902;6.024;2023-04-25T04:06:55;5.10;99.90
52459;DHT22;38372;52.902;6.024;2023-04-25T04:09:21;5.10;99.90
52459;DHT22;38372;52.902;6.024;2023-04-25T04:11:47;5.10;99.90
52459;DHT22;38372;52.902;6.024;2023-04-25T04:14:13;5.10;99.90
52459;DHT22;38372;52.902;6.024;2023-04-25T04:16:39;5.20;99.90
52459;DHT22;38372;52.902;6.024;2023-04-25T04:19:05;5.20;99.90
52459;DHT22;38372;52.902;6.024;2023-04-25T04:21:31;5.20;99.90
52459;DHT22;38372;52.902;6.024;2023-04-25T04:23:57;5.20;99.90
52459;DHT22;38372;52.902;6.024;2023-04-25T04:26:25;5.20;99.90
52459;DHT22;38372;52.902;6.024;2023-04-25T04:28:51;5.20;99.90
52459;DHT22;38372;52.902;6.024;2023-04-25T04:31:20;5.30;99.90
52459;DHT22;38372;52.902;6.024;2023-04-25T04:33:47;5.30;99.90
52459;DHT22;38372;52.902;6.024;2023-04-25T04:36:13;5.30;99.90
52459;DHT22;38372;52.902;6.024;2023-04-25T04:38:39;5.30;99.90
52459;DHT22;38372;52.902;6.024;2023-04-25T04:41:06;5.30;99.90
52459;DHT22;38372;52.902;6.024;2023-04-25T04:43:31;5.30;99.90
52459;DHT22;38372;52.902;6.024;2023-04-25T04:46:00;5.30;99.90
52459;DHT22;38372;52.902;6.024;2023-04-25T04:48:26;5.30;99.90
52459;DHT22;38372;52.902;6.024;2023-04-25T04:50:52;5.30;99.90
52459;DHT22;38372;52.902;6.024;2023-04-25T04:53:19;5.30;99.90
52459;DHT22;38372;52.902;6.024;2023-04-25T04:55:45;5.30;99.90
52459;DHT22;38372;52.902;6.024;2023-04-25T04:58:11;5.20;99.90
52459;DHT22;38372;52.902;6.024;2023-04-25T05:00:37;5.20;99.90
52459;DHT22;38372;52.902;6.024;2023-04-25T05:03:03;5.20;99.90
52459;DHT22;38372;52.902;6.024;2023-04-25T05:05:30;5.20;99.90
52459;DHT22;38372;52.902;6.024;2023-04-25T05:07:56;5.30;99.90
52459;DHT22;38372;52.902;6.024;2023-04-25T05:10:22;5.30;99.90
52459;DHT22;38372;52.902;6.024;2023-04-25T05:12:48;5.40;99.90
52459;DHT22;38372;52.902;6.024;2023-04-25T05:15:13;5.40;99.90
52459;DHT22;38372;52.902;6.024;2023-04-25T05:17:39;5.40;99.90
52459;DHT22;38372;52.902;6.024;2023-04-25T05:20:08;5.30;99.90
52459;DHT22;38372;52.902;6.024;2023-04-25T05:22:35;5.30;99.90
52459;DHT22;38372;52.902;6.024;2023-04-25T05:25:01;5.30;99.90
52459;DHT22;38372;52.902;6.024;2023-04-25T05:27:26;5.30;99.90
52459;DHT22;38372;52.902;6.024;2023-04-25T05:29:52;5.20;99.90
52459;DHT22;38372;52.902;6.024;2023-04-25T05:32:18;5.20;99.90
52459;DHT22;38372;52.902;6.024;2023-04-25T05:34:44;5.30;99.90
52459;DHT22;38372;52.902;6.024;2023-04-25T05:37:12;5.30;99.90
52459;DHT22;38372;52.902;6.024;2023-04-25T05:39:38;5.40;99.90
52459;DHT22;38372;52.902;6.024;2023-04-25T05:42:04;5.40;99.90
52459;DHT22;38372;52.902;6.024;2023-04-25T05:44:30;5.50;99.90
52459;DHT22;38372;52.902;6.024;2023-04-25T05:46:56;5.50;99.90
52459;DHT22;38372;52.902;6.024;2023-04-25T05:49:28;5.60;99.90
52459;DHT22;38372;52.902;6.024;2023-04-25T05:51:54;5.60;99.90
52459;DHT22;38372;52.902;6.024;2023-04-25T05:54:19;5.70;99.90
52459;DHT22;38372;52.902;6.024;2023-04-25T05:56:45;5.80;99.90
52459;DHT22;38372;52.902;6.024;2023-04-25T05:59:11;5.90;99.90
52459;DHT22;38372;52.902;6.024;2023-04-25T06:01:37;5.90;99.90
52459;DHT22;38372;52.902;6.024;2023-04-25T06:04:02;6.00;99.90
52459;DHT22;38372;52.902;6.024;2023-04-25T06:06:28;6.10;99.90
52459;DHT22;38372;52.902;6.024;2023-04-25T06:08:54;6.30;99.90
52459;DHT22;38372;52.902;6.024;2023-04-25T06:11:20;6.50;99.90
52459;DHT22;38372;52.902;6.024;2023-04-25T06:13:46;6.80;99.90
52459;DHT22;38372;52.902;6.024;2023-04-25T06:16:12;7.10;99.90
52459;DHT22;38372;52.902;6.024;2023-04-25T06:18:38;7.30;99.90
52459;DHT22;38372;52.902;6.024;2023-04-25T06:21:04;7.60;99.90
52459;DHT22;38372;52.902;6.024;2023-04-25T06:23:29;7.80;99.90
52459;DHT22;38372;52.902;6.024;2023-04-25T06:25:55;7.90;99.90
52459;DHT22;38372;52.902;6.024;2023-04-25T06:28:21;7.90;99.90
52459;DHT22;38372;52.902;6.024;2023-04-25T06:30:47;8.10;99.90
52459;DHT22;38372;52.902;6.024;2023-04-25T06:33:13;8.20;99.90
52459;DHT22;38372;52.902;6.024;2023-04-25T06:35:39;8.30;99.90
52459;DHT22;38372;52.902;6.024;2023-04-25T06:38:04;8.40;99.90
52459;DHT22;38372;52.902;6.024;2023-04-25T06:40:30;8.50;99.90
52459;DHT22;38372;52.902;6.024;2023-04-25T06:42:56;8.40;99.90
52459;DHT22;38372;52.902;6.024;2023-04-25T06:45:21;8.50;99.90
52459;DHT22;38372;52.902;6.024;2023-04-25T06:47:47;8.70;99.90
52459;DHT22;38372;52.902;6.024;2023-04-25T06:50:13;8.80;99.90
52459;DHT22;38372;52.902;6.024;2023-04-25T06:52:39;8.90;99.90
52459;DHT22;38372;52.902;6.024;2023-04-25T06:55:05;9.10;99.90
52459;DHT22;38372;52.902;6.024;2023-04-25T06:57:31;9.10;99.90
52459;DHT22;38372;52.902;6.024;2023-04-25T06:59:57;9.10;99.90
52459;DHT22;38372;52.902;6.024;2023-04-25T07:02:22;9.10;99.90
52459;DHT22;38372;52.902;6.024;2023-04-25T07:04:48;9.10;99.90
52459;DHT22;38372;52.902;6.024;2023-04-25T07:07:14;9.10;99.90
52459;DHT22;38372;52.902;6.024;2023-04-25T07:09:39;9.20;99.90
52459;DHT22;38372;52.902;6.024;2023-04-25T07:12:05;9.20;99.90
52459;DHT22;38372;52.902;6.024;2023-04-25T07:14:31;9.20;99.90
52459;DHT22;38372;52.902;6.024;2023-04-25T07:16:57;9.30;99.90
52459;DHT22;38372;52.902;6.024;2023-04-25T07:19:23;9.40;99.90
52459;DHT22;38372;52.902;6.024;2023-04-25T07:21:52;9.30;99.90
52459;DHT22;38372;52.902;6.024;2023-04-25T07:24:18;9.00;99.90
52459;DHT22;38372;52.902;6.024;2023-04-25T07:26:44;8.70;99.90
52459;DHT22;38372;52.902;6.024;2023-04-25T07:29:10;8.70;99.90
52459;DHT22;38372;52.902;6.024;2023-04-25T07:31:36;8.80;99.90
52459;DHT22;38372;52.902;6.024;2023-04-25T07:34:01;8.90;99.90
52459;DHT22;38372;52.902;6.024;2023-04-25T07:36:28;8.90;99.90
52459;DHT22;38372;52.902;6.024;2023-04-25T07:38:53;8.50;99.90
52459;DHT22;38372;52.902;6.024;2023-04-25T07:41:19;7.60;99.90
52459;DHT22;38372;52.902;6.024;2023-04-25T07:43:45;6.90;99.90
52459;DHT22;38372;52.902;6.024;2023-04-25T07:46:14;6.30;99.90
52459;DHT22;38372;52.902;6.024;2023-04-25T07:48:47;6.00;99.90
52459;DHT22;38372;52.902;6.024;2023-04-25T07:51:22;5.90;99.90
52459;DHT22;38372;52.902;6.024;2023-04-25T07:53:54;6.00;99.90
52459;DHT22;38372;52.902;6.024;2023-04-25T07:56:21;6.10;99.90
52459;DHT22;38372;52.902;6.024;2023-04-25T07:58:48;6.20;99.90
52459;DHT22;38372;52.902;6.024;2023-04-25T08:01:15;6.40;99.90
52459;DHT22;38372;52.902;6.024;2023-04-25T08:04:00;6.60;99.90
52459;DHT22;38372;52.902;6.024;2023-04-25T08:06:26;6.80;99.90
52459;DHT22;38372;52.902;6.024;2023-04-25T08:08:54;6.90;99.90
52459;DHT22;38372;52.902;6.024;2023-04-25T08:11:20;7.10;99.90
52459;DHT22;38372;52.902;6.024;2023-04-25T08:13:50;7.60;99.90
52459;DHT22;38372;52.902;6.024;2023-04-25T08:16:28;8.10;99.90
52459;DHT22;38372;52.902;6.024;2023-04-25T08:18:57;8.60;99.90
52459;DHT22;38372;52.902;6.024;2023-04-25T08:21:26;9.10;99.90
52459;DHT22;38372;52.902;6.024;2023-04-25T08:23:57;9.50;99.90
52459;DHT22;38372;52.902;6.024;2023-04-25T08:26:30;9.80;99.90
52459;DHT22;38372;52.902;6.024;2023-04-25T08:29:03;10.20;99.90
52459;DHT22;38372;52.902;6.024;2023-04-25T08:31:33;10.50;99.90
52459;DHT22;38372;52.902;6.024;2023-04-25T08:34:04;10.40;99.90
52459;DHT22;38372;52.902;6.024;2023-04-25T08:36:34;10.00;99.90
52459;DHT22;38372;52.902;6.024;2023-04-25T08:39:05;9.60;99.90
52459;DHT22;38372;52.902;6.024;2023-04-25T08:41:56;9.20;99.90
52459;DHT22;38372;52.902;6.024;2023-04-25T08:44:25;8.90;99.90
52459;DHT22;38372;52.902;6.024;2023-04-25T08:46:57;8.90;99.90
52459;DHT22;38372;52.902;6.024;2023-04-25T08:49:39;9.20;99.90
52459;DHT22;38372;52.902;6.024;2023-04-25T08:52:14;9.80;99.90
52459;DHT22;38372;52.902;6.024;2023-04-25T08:54:47;10.20;99.90
52459;DHT22;38372;52.902;6.024;2023-04-25T08:57:14;10.50;99.90
52459;DHT22;38372;52.902;6.024;2023-04-25T08:59:41;10.90;99.90
52459;DHT22;38372;52.902;6.024;2023-04-25T09:02:11;11.20;99.90
52459;DHT22;38372;52.902;6.024;2023-04-25T09:04:43;11.50;99.90
52459;DHT22;38372;52.902;6.024;2023-04-25T09:07:10;11.70;99.90
52459;DHT22;38372;52.902;6.024;2023-04-25T09:09:36;11.70;99.90
52459;DHT22;38372;52.902;6.024;2023-04-25T09:12:01;11.50;99.90
52459;DHT22;38372;52.902;6.024;2023-04-25T09:14:27;11.20;99.90
52459;DHT22;38372;52.902;6.024;2023-04-25T09:19:23;10.90;99.90
52459;DHT22;38372;52.902;6.024;2023-04-25T09:21:49;10.70;99.90
52459;DHT22;38372;52.902;6.024;2023-04-25T09:24:15;10.70;99.90
52459;DHT22;38372;52.902;6.024;2023-04-25T09:26:41;10.40;99.90
52459;DHT22;38372;52.902;6.024;2023-04-25T09:29:07;10.10;99.90
52459;DHT22;38372;52.902;6.024;2023-04-25T09:31:33;10.40;99.90
52459;DHT22;38372;52.902;6.024;2023-04-25T09:34:00;10.70;99.90
52459;DHT22;38372;52.902;6.024;2023-04-25T09:36:27;10.60;99.90
52459;DHT22;38372;52.902;6.024;2023-04-25T09:38:54;10.50;99.90
52459;DHT22;38372;52.902;6.024;2023-04-25T09:41:25;10.50;99.90
52459;DHT22;38372;52.902;6.024;2023-04-25T09:43:51;10.30;99.90
52459;DHT22;38372;52.902;6.024;2023-04-25T09:46:17;9.90;99.90
52459;DHT22;38372;52.902;6.024;2023-04-25T09:48:50;9.50;99.90
52459;DHT22;38372;52.902;6.024;2023-04-25T09:51:16;9.20;99.90
52459;DHT22;38372;52.902;6.024;2023-04-25T09:53:44;8.80;99.90
52459;DHT22;38372;52.902;6.024;2023-04-25T09:56:16;8.60;99.90
52459;DHT22;38372;52.902;6.024;2023-04-25T09:58:42;8.30;99.90
52459;DHT22;38372;52.902;6.024;2023-04-25T10:01:10;8.20;99.90
52459;DHT22;38372;52.902;6.024;2023-04-25T10:03:37;8.00;99.90
52459;DHT22;38372;52.902;6.024;2023-04-25T10:06:13;7.90;99.90
52459;DHT22;38372;52.902;6.024;2023-04-25T10:08:40;7.80;99.90
52459;DHT22;38372;52.902;6.024;2023-04-25T10:11:08;7.90;99.90
52459;DHT22;38372;52.902;6.024;2023-04-25T10:13:35;7.90;99.90
52459;DHT22;38372;52.902;6.024;2023-04-25T10:16:03;7.90;99.90
52459;DHT22;38372;52.902;6.024;2023-04-25T10:18:30;7.90;99.90
52459;DHT22;38372;52.902;6.024;2023-04-25T10:21:00;8.00;99.90
52459;DHT22;38372;52.902;6.024;2023-04-25T10:23:26;8.00;99.90
52459;DHT22;38372;52.902;6.024;2023-04-25T10:25:53;8.10;99.90
52459;DHT22;38372;52.902;6.024;2023-04-25T10:28:20;8.40;99.90
52459;DHT22;38372;52.902;6.024;2023-04-25T10:31:12;8.90;99.90
52459;DHT22;38372;52.902;6.024;2023-04-25T10:33:43;9.80;99.90
52459;DHT22;38372;52.902;6.024;2023-04-25T10:38:38;11.10;99.90
52459;DHT22;38372;52.902;6.024;2023-04-25T10:41:09;11.40;99.90
52459;DHT22;38372;52.902;6.024;2023-04-25T10:43:35;11.50;99.90
52459;DHT22;38372;52.902;6.024;2023-04-25T10:46:12;11.60;99.90
52459;DHT22;38372;52.902;6.024;2023-04-25T10:48:47;11.70;99.90
52459;DHT22;38372;52.902;6.024;2023-04-25T10:53:46;11.60;99.90
52459;DHT22;38372;52.902;6.024;2023-04-25T10:56:23;11.40;99.90
52459;DHT22;38372;52.902;6.024;2023-04-25T10:58:50;11.60;99.90
52459;DHT22;38372;52.902;6.024;2023-04-25T11:01:20;11.80;99.90
52459;DHT22;38372;52.902;6.024;2023-04-25T11:03:46;11.60;99.90
52459;DHT22;38372;52.902;6.024;2023-04-25T11:06:34;11.00;99.90
52459;DHT22;38372;52.902;6.024;2023-04-25T11:09:03;10.70;99.90
52459;DHT22;38372;52.902;6.024;2023-04-25T11:11:36;11.00;99.90
52459;DHT22;38372;52.902;6.024;2023-04-25T11:14:02;11.50;99.90
52459;DHT22;38372;52.902;6.024;2023-04-25T11:16:28;12.00;99.90
52459;DHT22;38372;52.902;6.024;2023-04-25T11:18:57;12.40;99.90
52459;DHT22;38372;52.902;6.024;2023-04-25T11:21:23;12.70;99.90
52459;DHT22;38372;52.902;6.024;2023-04-25T11:23:51;12.90;99.90
52459;DHT22;38372;52.902;6.024;2023-04-25T11:26:19;13.00;99.90
52459;DHT22;38372;52.902;6.024;2023-04-25T11:28:45;13.10;99.90
52459;DHT22;38372;52.902;6.024;2023-04-25T11:31:12;13.00;99.90
52459;DHT22;38372;52.902;6.024;2023-04-25T11:33:38;12.70;99.90
52459;DHT22;38372;52.902;6.024;2023-04-25T11:36:06;12.20;99.90
52459;DHT22;38372;52.902;6.024;2023-04-25T11:38:32;11.60;99.90
52459;DHT22;38372;52.902;6.024;2023-04-25T11:40:58;11.10;99.90
52459;DHT22;38372;52.902;6.024;2023-04-25T11:43:25;11.20;99.90
52459;DHT22;38372;52.902;6.024;2023-04-25T11:45:51;11.10;99.90
52459;DHT22;38372;52.902;6.024;2023-04-25T11:48:18;10.80;99.90
52459;DHT22;38372;52.902;6.024;2023-04-25T11:50:45;10.70;99.90
52459;DHT22;38372;52.902;6.024;2023-04-25T11:53:11;10.50;99.90
52459;DHT22;38372;52.902;6.024;2023-04-25T11:55:37;10.30;99.90
52459;DHT22;38372;52.902;6.024;2023-04-25T11:58:04;10.30;99.90
52459;DHT22;38372;52.902;6.024;2023-04-25T12:00:30;10.00;99.90
52459;DHT22;38372;52.902;6.024;2023-04-25T12:02:57;9.60;99.90
52459;DHT22;38372;52.902;6.024;2023-04-25T12:05:25;9.20;99.90
52459;DHT22;38372;52.902;6.024;2023-04-25T12:07:51;8.90;99.90
52459;DHT22;38372;52.902;6.024;2023-04-25T12:10:18;8.90;99.90
52459;DHT22;38372;52.902;6.024;2023-04-25T12:12:45;8.90;99.90
52459;DHT22;38372;52.902;6.024;2023-04-25T12:15:16;9.10;99.90
52459;DHT22;38372;52.902;6.024;2023-04-25T12:17:46;9.30;99.90
52459;DHT22;38372;52.902;6.024;2023-04-25T12:20:15;9.90;99.90
52459;DHT22;38372;52.902;6.024;2023-04-25T12:22:42;10.40;99.90
52459;DHT22;38372;52.902;6.024;2023-04-25T12:25:40;10.90;99.90
52459;DHT22;38372;52.902;6.024;2023-04-25T12:28:20;11.10;99.90
52459;DHT22;38372;52.902;6.024;2023-04-25T12:31:02;10.90;99.90
52459;DHT22;38372;52.902;6.024;2023-04-25T12:33:36;10.50;99.90
52459;DHT22;38372;52.902;6.024;2023-04-25T12:36:03;10.10;99.90
52459;DHT22;38372;52.902;6.024;2023-04-25T12:38:40;9.90;99.90
52459;DHT22;38372;52.902;6.024;2023-04-25T12:41:06;9.70;99.90
52459;DHT22;38372;52.902;6.024;2023-04-25T12:43:32;9.80;99.90
52459;DHT22;38372;52.902;6.024;2023-04-25T12:45:58;9.90;99.90
52459;DHT22;38372;52.902;6.024;2023-04-25T12:48:24;9.90;99.90
52459;DHT22;38372;52.902;6.024;2023-04-25T12:50:50;9.80;99.90
52459;DHT22;38372;52.902;6.024;2023-04-25T12:53:21;9.90;99.90
52459;DHT22;38372;52.902;6.024;2023-04-25T12:55:48;10.20;99.90
52459;DHT22;38372;52.902;6.024;2023-04-25T12:58:15;10.50;99.90
52459;DHT22;38372;52.902;6.024;2023-04-25T13:00:41;10.90;99.90
52459;DHT22;38372;52.902;6.024;2023-04-25T13:03:08;11.20;99.90
52459;DHT22;38372;52.902;6.024;2023-04-25T13:05:34;11.20;99.90
52459;DHT22;38372;52.902;6.024;2023-04-25T13:08:00;11.00;99.90
52459;DHT22;38372;52.902;6.024;2023-04-25T13:10:26;10.60;99.90
52459;DHT22;38372;52.902;6.024;2023-04-25T13:12:52;10.10;99.90
52459;DHT22;38372;52.902;6.024;2023-04-25T13:15:18;9.60;99.90
52459;DHT22;38372;52.902;6.024;2023-04-25T13:17:44;9.30;99.90
52459;DHT22;38372;52.902;6.024;2023-04-25T13:20:10;9.00;99.90
52459;DHT22;38372;52.902;6.024;2023-04-25T13:22:37;9.00;99.90
52459;DHT22;38372;52.902;6.024;2023-04-25T13:25:04;9.30;99.90
52459;DHT22;38372;52.902;6.024;2023-04-25T13:27:30;9.70;99.90
52459;DHT22;38372;52.902;6.024;2023-04-25T13:29:58;10.10;99.90
52459;DHT22;38372;52.902;6.024;2023-04-25T13:32:24;10.40;99.90
52459;DHT22;38372;52.902;6.024;2023-04-25T13:34:51;10.70;99.90
52459;DHT22;38372;52.902;6.024;2023-04-25T13:37:17;10.80;99.90
52459;DHT22;38372;52.902;6.024;2023-04-25T13:39:42;10.50;99.90
52459;DHT22;38372;52.902;6.024;2023-04-25T13:42:08;9.90;99.90
52459;DHT22;38372;52.902;6.024;2023-04-25T13:44:34;9.00;99.90
52459;DHT22;38372;52.902;6.024;2023-04-25T13:46:59;8.10;99.90
52459;DHT22;38372;52.902;6.024;2023-04-25T13:49:26;7.40;99.90
52459;DHT22;38372;52.902;6.024;2023-04-25T13:51:52;7.00;99.90
52459;DHT22;38372;52.902;6.024;2023-04-25T13:54:17;6.90;99.90
52459;DHT22;38372;52.902;6.024;2023-04-25T13:56:43;6.90;99.90
52459;DHT22;38372;52.902;6.024;2023-04-25T13:59:09;7.00;99.90
52459;DHT22;38372;52.902;6.024;2023-04-25T14:01:35;7.10;99.90
52459;DHT22;38372;52.902;6.024;2023-04-25T14:04:02;7.30;99.90
52459;DHT22;38372;52.902;6.024;2023-04-25T14:06:30;7.60;99.90
52459;DHT22;38372;52.902;6.024;2023-04-25T14:08:56;7.80;99.90
52459;DHT22;38372;52.902;6.024;2023-04-25T14:11:22;8.20;99.90
52459;DHT22;38372;52.902;6.024;2023-04-25T14:13:48;8.70;99.90
52459;DHT22;38372;52.902;6.024;2023-04-25T14:16:15;9.00;99.90
52459;DHT22;38372;52.902;6.024;2023-04-25T14:18:41;9.30;99.90
52459;DHT22;38372;52.902;6.024;2023-04-25T14:21:07;9.40;99.90
52459;DHT22;38372;52.902;6.024;2023-04-25T14:23:33;9.30;99.90
52459;DHT22;38372;52.902;6.024;2023-04-25T14:25:59;9.20;99.90
52459;DHT22;38372;52.902;6.024;2023-04-25T14:28:25;9.30;99.90
52459;DHT22;38372;52.902;6.024;2023-04-25T14:30:51;9.50;99.90
52459;DHT22;38372;52.902;6.024;2023-04-25T14:33:17;10.10;99.90
52459;DHT22;38372;52.902;6.024;2023-04-25T14:36:05;10.50;99.90
52459;DHT22;38372;52.902;6.024;2023-04-25T14:38:45;10.80;99.90
52459;DHT22;38372;52.902;6.024;2023-04-25T14:41:11;11.10;99.90
52459;DHT22;38372;52.902;6.024;2023-04-25T14:43:36;11.20;99.90
52459;DHT22;38372;52.902;6.024;2023-04-25T14:46:03;11.20;99.90
52459;DHT22;38372;52.902;6.024;2023-04-25T14:48:29;11.20;99.90
52459;DHT22;38372;52.902;6.024;2023-04-25T14:50:55;11.60;99.90
52459;DHT22;38372;52.902;6.024;2023-04-25T14:53:23;12.10;99.90
52459;DHT22;38372;52.902;6.024;2023-04-25T14:55:48;11.80;99.90
52459;DHT22;38372;52.902;6.024;2023-04-25T14:58:14;11.30;99.90
52459;DHT22;38372;52.902;6.024;2023-04-25T15:00:41;11.30;99.90
52459;DHT22;38372;52.902;6.024;2023-04-25T15:03:07;11.40;99.90
52459;DHT22;38372;52.902;6.024;2023-04-25T15:05:33;11.60;99.90
52459;DHT22;38372;52.902;6.024;2023-04-25T15:07:59;11.80;99.90
52459;DHT22;38372;52.902;6.024;2023-04-25T15:10:25;11.50;99.90
52459;DHT22;38372;52.902;6.024;2023-04-25T15:12:51;10.90;99.90
52459;DHT22;38372;52.902;6.024;2023-04-25T15:15:19;10.40;99.90
52459;DHT22;38372;52.902;6.024;2023-04-25T15:17:44;10.10;99.90
52459;DHT22;38372;52.902;6.024;2023-04-25T15:20:11;9.90;99.90
52459;DHT22;38372;52.902;6.024;2023-04-25T15:22:43;9.80;99.90
52459;DHT22;38372;52.902;6.024;2023-04-25T15:25:10;9.50;99.90
52459;DHT22;38372;52.902;6.024;2023-04-25T15:27:37;9.20;99.90
52459;DHT22;38372;52.902;6.024;2023-04-25T15:30:09;8.90;99.90
52459;DHT22;38372;52.902;6.024;2023-04-25T15:32:37;8.60;99.90
52459;DHT22;38372;52.902;6.024;2023-04-25T15:35:04;8.70;99.90
52459;DHT22;38372;52.902;6.024;2023-04-25T15:37:31;9.00;99.90
52459;DHT22;38372;52.902;6.024;2023-04-25T15:40:12;9.20;99.90
52459;DHT22;38372;52.902;6.024;2023-04-25T15:42:40;9.40;99.90
52459;DHT22;38372;52.902;6.024;2023-04-25T15:45:08;9.40;99.90
52459;DHT22;38372;52.902;6.024;2023-04-25T15:47:35;9.50;99.90
52459;DHT22;38372;52.902;6.024;2023-04-25T15:50:03;9.70;99.90